Time;durP1;ratioP1;P1;durP2;ratioP2;P2;SDS_P1;SDS_P2;PMS_P1;PMS_P2;Temp;Humidity;BMP_temperature;BMP_pressure;BME280_temperature;BME280_humidity;BME280_pressure;Samples;Min_cycle;Max_cycle;Signal;HPM_P1;HPM_P2
2022/09/17 00:02:07;;;;;;;2.58;2.37;;;;;;;10.37;100.00;97619.72;4431228;32;20042;-71
2022/09/17 00:04:34;;;;;;;3.20;2.58;;;;;;;9.96;100.00;97633.44;4431303;32;20046;-70
2022/09/17 00:07:00;;;;;;;3.37;2.70;;;;;;;9.96;100.00;97595.81;4410469;32;20172;-71
2022/09/17 00:09:27;;;;;;;3.05;2.55;;;;;;;9.89;100.00;97576.50;4412176;32;20029;-71
2022/09/17 00:11:53;;;;;;;2.55;2.35;;;;;;;9.69;100.00;97532.56;4412358;32;20530;-71
2022/09/17 00:14:19;;;;;;;5.45;2.67;;;;;;;10.22;100.00;97630.56;4412603;32;20034;-71
2022/09/17 00:16:48;;;;;;;7.15;2.55;;;;;;;9.72;100.00;97583.06;4410358;32;20042;-73
2022/09/17 00:19:19;;;;;;;9.65;2.95;;;;;;;10.00;100.00;97612.97;4413035;32;20047;-71
2022/09/17 00:21:46;;;;;;;2.53;2.22;;;;;;;9.79;100.00;97553.97;4413655;32;20429;-71
2022/09/17 00:24:14;;;;;;;12.07;2.67;;;;;;;9.75;100.00;97574.44;4413728;32;20038;-71
2022/09/17 00:26:41;;;;;;;12.52;2.90;;;;;;;9.94;100.00;97608.72;4405439;32;20171;-72
2022/09/17 00:29:08;;;;;;;3.97;2.85;;;;;;;9.93;100.00;97628.63;4396596;32;20067;-71
2022/09/17 00:31:35;;;;;;;2.47;2.37;;;;;;;9.99;100.00;97616.75;4409937;32;20093;-71
2022/09/17 00:34:03;;;;;;;2.92;2.33;;;;;;;9.55;100.00;97569.19;4412128;32;20038;-71
2022/09/17 00:36:30;;;;;;;2.92;2.40;;;;;;;9.32;100.00;97544.63;4412875;32;20498;-70
2022/09/17 00:38:58;;;;;;;4.72;2.62;;;;;;;9.76;100.00;97619.03;4410219;32;20073;-71
2022/09/17 00:41:30;;;;;;;4.20;2.62;;;;;;;9.61;100.00;97625.31;4412780;32;20038;-71
2022/09/17 00:43:59;;;;;;;4.62;2.25;;;;;;;9.54;100.00;97621.31;4415533;32;20034;-70
2022/09/17 00:46:37;;;;;;;7.07;3.25;;;;;;;9.75;100.00;97620.12;4430784;32;20344;-72
2022/09/17 00:49:10;;;;;;;4.68;2.42;;;;;;;9.79;100.00;97613.09;4429951;32;20338;-70
2022/09/17 00:51:43;;;;;;;4.00;2.75;;;;;;;9.65;100.00;97628.25;4424059;32;20042;-70
2022/09/17 00:54:10;;;;;;;4.15;2.60;;;;;;;10.25;100.00;97624.63;4428837;32;20183;-70
2022/09/17 00:56:39;;;;;;;4.25;2.78;;;;;;;10.59;100.00;97611.16;4430673;32;20391;-70
2022/09/17 00:59:07;;;;;;;5.15;2.83;;;;;;;10.48;100.00;97618.53;4430800;32;20034;-69
2022/09/17 01:01:34;;;;;;;7.78;2.95;;;;;;;9.94;100.00;97635.59;4417342;32;20216;-69
2022/09/17 01:04:02;;;;;;;3.45;2.78;;;;;;;10.54;100.00;97611.19;4430032;32;20038;-69
2022/09/17 01:06:39;;;;;;;4.25;2.50;;;;;;;10.23;100.00;97584.56;4427648;32;20052;-70
2022/09/17 01:09:20;;;;;;;3.22;2.70;;;;;;;10.30;100.00;97629.97;4429026;32;20379;-70
2022/09/17 01:11:55;;;;;;;2.67;2.50;;;;;;;10.09;100.00;97632.00;4430077;32;20063;-73
2022/09/17 01:14:54;;;;;;;2.60;2.42;;;;;;;9.97;100.00;97608.16;4427453;32;20103;-70
2022/09/17 01:17:23;;;;;;;8.85;2.47;;;;;;;10.09;100.00;97626.62;4400438;32;20095;-72
2022/09/17 01:23:06;;;;;;;2.78;2.10;;;;;;;10.05;100.00;97637.16;4412778;32;20147;-70
2022/09/17 01:26:01;;;;;;;4.93;2.40;;;;;;;9.69;100.00;97582.84;4412638;32;20132;-70
2022/09/17 01:28:56;;;;;;;4.32;2.20;;;;;;;9.66;100.00;97578.81;4380884;32;20058;-73
2022/09/17 01:31:30;;;;;;;1.92;1.83;;;;;;;9.89;100.00;97589.94;4381820;32;20043;-71
2022/09/17 01:34:05;;;;;;;3.62;2.05;;;;;;;9.88;100.00;97631.34;4365110;32;20071;-73
2022/09/17 01:37:09;;;;;;;2.58;2.28;;;;;;;10.22;100.00;97633.25;4367312;32;20047;-71
2022/09/17 01:40:07;;;;;;;3.20;2.17;;;;;;;10.37;100.00;97638.56;4350589;32;20108;-72
2022/09/17 01:42:56;;;;;;;1.87;1.70;;;;;;;10.42;100.00;97626.91;4366698;32;20055;-71
2022/09/17 01:45:45;;;;;;;3.00;2.33;;;;;;;10.22;100.00;97576.78;4367028;32;20439;-71
2022/09/17 01:48:18;;;;;;;7.00;2.10;;;;;;;10.47;100.00;97630.37;4366835;32;20483;-72
2022/09/17 01:50:52;;;;;;;6.43;1.98;;;;;;;10.12;100.00;97616.09;4369037;32;20434;-71
2022/09/17 01:53:27;;;;;;;3.22;2.75;;;;;;;9.72;100.00;97540.06;4370435;32;20121;-70
2022/09/17 01:55:55;;;;;;;3.50;2.28;;;;;;;10.05;100.00;97583.38;4370459;32;20053;-71
2022/09/17 01:58:30;;;;;;;3.22;2.67;;;;;;;10.23;100.00;97616.00;4368828;32;20098;-71
2022/09/17 02:01:01;;;;;;;2.22;1.80;;;;;;;10.02;100.00;97604.62;4385269;32;20036;-71
2022/09/17 02:03:34;;;;;;;4.93;2.65;;;;;;;10.23;100.00;97624.91;4385033;32;20047;-72
2022/09/17 02:06:15;;;;;;;5.78;1.98;;;;;;;9.78;100.00;97584.63;4412726;32;20068;-73
2022/09/17 02:08:55;;;;;;;7.85;1.80;;;;;;;10.34;100.00;97618.38;4424096;32;20388;-72
2022/09/17 02:11:22;;;;;;;1.50;1.50;;;;;;;9.98;100.00;97615.16;4420975;32;20078;-72
2022/09/17 02:14:01;;;;;;;2.87;2.05;;;;;;;10.06;100.00;97617.22;4416134;32;20047;-73
2022/09/17 02:16:30;;;;;;;7.62;2.30;;;;;;;9.88;100.00;97616.03;4417613;32;20064;-71
2022/09/17 02:19:38;;;;;;;5.82;2.05;;;;;;;9.87;100.00;97609.03;4417734;32;20048;-71
2022/09/17 02:22:20;;;;;;;1.95;1.85;;;;;;;9.94;100.00;97611.41;4367667;32;20069;-71
2022/09/17 02:27:41;;;;;;;2.28;2.05;;;;;;;9.74;100.00;97599.72;4355217;32;20066;-71
2022/09/17 02:30:08;;;;;;;3.30;2.28;;;;;;;9.77;100.00;97601.84;4353028;32;20043;-71
2022/09/17 02:32:35;;;;;;;2.37;1.90;;;;;;;9.48;100.00;97561.47;4354081;32;20077;-73
2022/09/17 02:35:01;;;;;;;3.33;3.03;;;;;;;9.71;100.00;97600.25;4352224;32;20044;-71
2022/09/17 02:37:28;;;;;;;2.92;1.77;;;;;;;9.39;100.00;97571.97;4355182;32;20093;-72
2022/09/17 02:39:55;;;;;;;3.42;2.30;;;;;;;9.12;100.00;97593.06;4353944;32;20032;-72
2022/09/17 02:42:27;;;;;;;3.22;2.05;;;;;;;9.47;100.00;97597.47;4339105;33;20074;-72
2022/09/17 02:45:02;;;;;;;2.30;2.05;;;;;;;9.31;100.00;97607.47;4336000;33;20045;-72
2022/09/17 02:47:29;;;;;;;2.17;2.03;;;;;;;9.48;100.00;97606.31;4340026;33;20036;-71
2022/09/17 02:50:13;;;;;;;9.40;2.45;;;;;;;9.18;100.00;97554.37;4337893;33;20164;-71
2022/09/17 02:52:53;;;;;;;2.47;2.20;;;;;;;9.40;100.00;97600.44;4338232;33;20128;-72
2022/09/17 02:55:31;;;;;;;2.05;1.85;;;;;;;9.15;100.00;97598.69;4350796;32;20039;-71
2022/09/17 02:58:04;;;;;;;2.87;2.05;;;;;;;9.29;100.00;97598.09;4399926;32;20064;-71
2022/09/17 03:00:31;;;;;;;2.15;1.95;;;;;;;9.04;100.00;97589.88;4398988;32;20047;-70
2022/09/17 03:03:00;;;;;;;9.13;3.75;;;;;;;9.16;100.00;97596.78;4398376;32;20379;-71
2022/09/17 03:05:28;;;;;;;10.57;2.40;;;;;;;9.36;100.00;97599.38;4399346;32;20039;-72
2022/09/17 03:07:55;;;;;;;2.92;2.05;;;;;;;9.34;100.00;97577.37;4353154;32;20460;-72
2022/09/17 03:10:22;;;;;;;5.15;2.30;;;;;;;9.05;100.00;97561.94;4343252;32;20087;-71
2022/09/17 03:12:48;;;;;;;4.28;2.12;;;;;;;9.25;100.00;97573.66;4354767;32;20027;-72
2022/09/17 03:15:15;;;;;;;4.82;2.40;;;;;;;9.32;100.00;97602.91;4345371;32;20075;-72
2022/09/17 03:17:41;;;;;;;5.20;2.28;;;;;;;9.35;100.00;97613.91;4338827;33;20040;-73
2022/09/17 03:20:08;;;;;;;3.53;2.75;;;;;;;9.36;100.00;97604.75;4363383;32;20070;-73
2022/09/17 03:22:34;;;;;;;5.62;2.40;;;;;;;8.95;100.00;97555.81;4393505;32;20073;-71
2022/09/17 03:25:01;;;;;;;9.82;2.97;;;;;;;9.21;100.00;97596.78;4399315;32;20158;-70
2022/09/17 03:27:27;;;;;;;2.28;2.00;;;;;;;9.21;100.00;97594.09;4386996;32;20035;-71
2022/09/17 03:29:54;;;;;;;2.42;2.10;;;;;;;9.23;100.00;97552.44;4384008;32;20051;-72
2022/09/17 03:32:27;;;;;;;2.72;2.08;;;;;;;9.49;100.00;97548.81;4381722;32;20032;-73
2022/09/17 03:34:53;;;;;;;2.37;2.10;;;;;;;9.81;100.00;97594.84;4396817;32;20084;-72
2022/09/17 03:37:20;;;;;;;4.68;2.22;;;;;;;9.57;100.00;97567.03;4399159;32;20178;-70
2022/09/17 03:39:47;;;;;;;6.15;2.55;;;;;;;9.40;100.00;97546.72;4426010;32;20038;-70
2022/09/17 03:42:13;;;;;;;3.45;2.08;;;;;;;9.13;100.00;97540.97;4431434;32;20063;-70
2022/09/17 03:44:40;;;;;;;4.15;2.45;;;;;;;9.41;100.00;97577.06;4430175;32;20042;-70
2022/09/17 03:47:06;;;;;;;7.35;2.47;;;;;;;8.91;100.00;97534.09;4431075;32;20046;-71
2022/09/17 03:49:32;;;;;;;5.22;1.98;;;;;;;8.93;100.00;97531.13;4431558;32;20073;-70
2022/09/17 03:51:59;;;;;;;3.33;1.95;;;;;;;8.86;100.00;97491.19;4431616;32;20060;-70
2022/09/17 03:54:25;;;;;;;7.55;1.73;;;;;;;9.04;100.00;97522.75;4431645;32;20104;-70
2022/09/17 03:56:51;;;;;;;9.20;2.35;;;;;;;9.00;100.00;97550.41;4410686;32;20423;-71
2022/09/17 03:59:18;;;;;;;3.28;2.30;;;;;;;8.40;100.00;97480.59;4412503;32;20080;-71
2022/09/17 04:01:45;;;;;;;3.15;2.03;;;;;;;8.48;100.00;97520.28;4382189;32;20488;-71
2022/09/17 04:04:11;;;;;;;7.03;2.25;;;;;;;8.47;100.00;97534.78;4383612;32;20319;-71
2022/09/17 04:06:37;;;;;;;5.40;2.20;;;;;;;9.50;100.00;97571.94;4352008;32;20340;-71
2022/09/17 04:09:04;;;;;;;3.55;1.92;;;;;;;9.12;100.00;97523.25;4352599;32;20061;-73
2022/09/17 04:11:30;;;;;;;5.10;2.20;;;;;;;9.30;100.00;97560.19;4353502;32;20103;-71
2022/09/17 04:13:57;;;;;;;3.45;2.03;;;;;;;9.40;100.00;97552.09;4351434;32;20106;-70
2022/09/17 04:16:23;;;;;;;2.40;1.80;;;;;;;9.50;100.00;97566.56;4353080;32;20102;-70
2022/09/17 04:18:50;;;;;;;4.90;3.10;;;;;;;9.04;100.00;97532.69;4351457;32;20061;-69
2022/09/17 04:21:16;;;;;;;2.08;1.87;;;;;;;9.59;100.00;97570.28;4351752;32;20061;-70
2022/09/17 04:23:42;;;;;;;2.47;2.28;;;;;;;9.16;100.00;97524.28;4352081;32;20129;-71
2022/09/17 04:26:09;;;;;;;5.72;2.10;;;;;;;9.29;100.00;97545.19;4352213;32;20418;-70
2022/09/17 04:28:35;;;;;;;1.80;1.70;;;;;;;9.03;100.00;97521.16;4364931;32;20433;-70
2022/09/17 04:31:02;;;;;;;4.22;1.75;;;;;;;9.14;100.00;97531.84;4351998;32;20027;-73
2022/09/17 04:33:28;;;;;;;3.20;2.25;;;;;;;9.19;100.00;97567.53;4348037;32;20370;-71
2022/09/17 04:36:01;;;;;;;4.78;2.85;;;;;;;9.12;100.00;97534.00;4351783;32;20065;-71
2022/09/17 04:38:27;;;;;;;2.55;2.28;;;;;;;9.47;100.00;97583.22;4376995;32;20414;-70
2022/09/17 04:40:56;;;;;;;3.83;1.80;;;;;;;9.44;100.00;97574.66;4382496;32;20062;-70
2022/09/17 04:43:22;;;;;;;4.05;2.03;;;;;;;9.43;100.00;97577.63;4379716;32;20035;-71
2022/09/17 04:45:49;;;;;;;1.90;1.73;;;;;;;9.29;100.00;97584.69;4380787;32;20055;-71
2022/09/17 04:48:16;;;;;;;8.07;2.47;;;;;;;8.96;100.00;97536.75;4379610;32;20042;-70
2022/09/17 04:50:43;;;;;;;3.47;1.98;;;;;;;9.15;100.00;97539.63;4380187;32;20263;-70
2022/09/17 04:53:09;;;;;;;8.52;1.92;;;;;;;9.76;100.00;97586.78;4380262;32;20026;-73
2022/09/17 04:55:35;;;;;;;3.72;1.58;;;;;;;8.92;100.00;97482.03;4378463;32;20057;-69
2022/09/17 04:58:02;;;;;;;1.73;1.60;;;;;;;9.26;100.00;97568.00;4380127;32;20055;-69
2022/09/17 05:00:28;;;;;;;1.87;1.75;;;;;;;9.59;100.00;97581.00;4379054;32;20060;-72
2022/09/17 05:02:54;;;;;;;3.80;2.00;;;;;;;9.55;100.00;97537.75;4363485;32;20036;-69
2022/09/17 05:05:22;;;;;;;4.43;1.67;;;;;;;9.48;100.00;97574.91;4392768;32;20051;-69
2022/09/17 05:07:55;;;;;;;2.95;2.08;;;;;;;9.48;100.00;97579.44;4393789;32;20560;-68
2022/09/17 05:10:23;;;;;;;2.08;1.77;;;;;;;9.60;100.00;97583.41;4395996;32;20054;-69
2022/09/17 05:12:51;;;;;;;2.70;1.70;;;;;;;9.89;100.00;97568.41;4395419;32;20329;-69
2022/09/17 05:15:18;;;;;;;2.35;1.85;;;;;;;9.87;100.00;97579.47;4393339;32;20050;-73
2022/09/17 05:17:45;;;;;;;2.28;1.67;;;;;;;9.88;100.00;97574.91;4363523;32;20061;-70
2022/09/17 05:20:12;;;;;;;6.10;1.90;;;;;;;9.76;100.00;97535.72;4365459;32;20051;-70
2022/09/17 05:22:42;;;;;;;3.92;1.95;;;;;;;9.60;100.00;97534.22;4365896;32;20150;-70
2022/09/17 05:25:11;;;;;;;3.80;1.90;;;;;;;9.78;100.00;97536.25;4335981;32;20178;-70
2022/09/17 05:27:38;;;;;;;1.60;1.50;;;;;;;9.68;100.00;97541.69;4334961;32;20083;-70
2022/09/17 05:30:05;;;;;;;10.98;2.60;;;;;;;10.12;100.00;97572.28;4335828;32;20134;-71
2022/09/17 05:32:33;;;;;;;6.22;1.42;;;;;;;10.13;100.00;97573.88;4336426;32;20044;-70
2022/09/17 05:34:59;;;;;;;3.12;2.05;;;;;;;9.80;100.00;97523.31;4349020;32;20404;-70
2022/09/17 05:37:26;;;;;;;1.50;1.40;;;;;;;9.91;100.00;97582.41;4362993;32;20522;-69
2022/09/17 05:39:52;;;;;;;1.92;1.50;;;;;;;10.07;100.00;97569.63;4363258;32;20091;-69
2022/09/17 05:42:19;;;;;;;5.28;1.90;;;;;;;9.94;100.00;97579.13;4368004;32;20043;-68
2022/09/17 05:44:45;;;;;;;1.70;1.50;;;;;;;9.66;100.00;97505.44;4366431;32;20131;-69
2022/09/17 05:47:11;;;;;;;2.28;1.65;;;;;;;10.12;100.00;97578.47;4380032;32;20402;-70
2022/09/17 05:49:38;;;;;;;7.80;1.62;;;;;;;9.59;100.00;97536.12;4405637;32;20421;-70
2022/09/17 05:52:04;;;;;;;6.28;1.77;;;;;;;9.68;100.00;97528.25;4409679;32;20072;-70
2022/09/17 05:54:31;;;;;;;6.70;1.55;;;;;;;9.44;100.00;97531.66;4414248;32;20081;-69
2022/09/17 05:56:57;;;;;;;3.12;1.90;;;;;;;9.89;100.00;97563.88;4435910;32;20276;-69
2022/09/17 05:59:23;;;;;;;11.02;1.70;;;;;;;9.83;100.00;97521.97;4440570;32;20469;-69
2022/09/17 06:01:50;;;;;;;5.50;1.60;;;;;;;9.64;100.00;97530.72;4441456;32;20374;-73
2022/09/17 06:04:16;;;;;;;4.03;1.90;;;;;;;9.62;100.00;97518.63;4436411;32;20037;-69
2022/09/17 06:06:43;;;;;;;7.30;1.80;;;;;;;10.06;100.00;97563.44;4434650;32;20071;-69
2022/09/17 06:09:10;;;;;;;5.78;2.72;;;;;;;9.66;100.00;97514.31;4438800;32;20042;-70
2022/09/17 06:11:37;;;;;;;4.18;1.55;;;;;;;9.89;100.00;97520.84;4434681;32;20054;-71
2022/09/17 06:14:03;;;;;;;3.08;1.80;;;;;;;9.97;100.00;97554.37;4440415;32;20026;-70
2022/09/17 06:16:30;;;;;;;3.55;1.92;;;;;;;9.65;100.00;97569.13;4443413;32;20072;-70
2022/09/17 06:18:56;;;;;;;3.37;1.62;;;;;;;9.63;100.00;97528.28;4432854;32;20050;-70
2022/09/17 06:21:22;;;;;;;7.47;1.62;;;;;;;9.94;100.00;97577.25;4430311;32;20077;-70
2022/09/17 06:23:49;;;;;;;6.68;1.65;;;;;;;9.77;100.00;97580.34;4430366;32;20046;-70
2022/09/17 06:26:16;;;;;;;6.82;1.50;;;;;;;9.91;100.00;97577.03;4426582;32;20071;-70
2022/09/17 06:28:43;;;;;;;6.90;2.37;;;;;;;9.84;100.00;97533.53;4429040;32;20911;-69
2022/09/17 06:31:12;;;;;;;3.35;1.67;;;;;;;9.83;100.00;97530.03;4424335;32;20099;-70
2022/09/17 06:33:38;;;;;;;4.07;2.30;;;;;;;10.05;100.00;97564.53;4426141;32;20039;-70
2022/09/17 06:36:07;;;;;;;5.37;1.85;;;;;;;9.69;100.00;97532.56;4408125;32;20031;-71
2022/09/17 06:38:35;;;;;;;7.85;1.98;;;;;;;9.98;100.00;97582.88;4410026;32;20072;-69
2022/09/17 06:41:03;;;;;;;6.00;2.17;;;;;;;9.60;100.00;97534.22;4413683;32;20191;-69
2022/09/17 06:43:30;;;;;;;8.35;2.05;;;;;;;9.76;100.00;97586.78;4376562;32;20364;-69
2022/09/17 06:45:59;;;;;;;3.97;1.65;;;;;;;10.04;100.00;97537.94;4384337;32;20381;-70
2022/09/17 06:48:28;;;;;;;2.28;1.80;;;;;;;10.22;100.00;97584.84;4379518;32;20451;-70
2022/09/17 06:50:55;;;;;;;3.83;1.90;;;;;;;10.21;100.00;97569.78;4383352;32;20110;-70
2022/09/17 06:53:23;;;;;;;10.90;2.47;;;;;;;10.24;100.00;97569.22;4383398;32;20055;-70
2022/09/17 06:55:50;;;;;;;9.02;2.08;;;;;;;10.29;100.00;97561.09;4383105;32;20687;-70
2022/09/17 06:58:16;;;;;;;4.57;1.50;;;;;;;9.78;100.00;97495.94;4380982;32;20039;-73
2022/09/17 07:00:42;;;;;;;2.62;1.52;;;;;;;9.26;100.00;97457.09;4383299;32;20098;-70
2022/09/17 07:03:09;;;;;;;2.75;2.30;;;;;;;9.89;100.00;97589.94;4383101;32;20056;-69
2022/09/17 07:05:35;;;;;;;7.87;1.50;;;;;;;9.96;100.00;97595.81;4384555;32;20043;-69
2022/09/17 07:08:03;;;;;;;8.88;1.75;;;;;;;10.19;100.00;97562.00;4402878;32;20043;-70
2022/09/17 07:10:30;;;;;;;6.03;1.65;;;;;;;10.40;100.00;97576.06;4411921;32;20177;-70
2022/09/17 07:12:57;;;;;;;2.50;1.80;;;;;;;10.23;100.00;97597.19;4414878;32;20376;-69
2022/09/17 07:15:24;;;;;;;6.68;1.92;;;;;;;10.02;100.00;97600.06;4427113;32;20038;-69
2022/09/17 07:17:51;;;;;;;4.72;1.85;;;;;;;10.35;100.00;97603.03;4430468;32;20064;-69
2022/09/17 07:20:17;;;;;;;6.80;2.05;;;;;;;10.27;100.00;97619.75;4412159;32;20158;-74
2022/09/17 07:22:43;;;;;;;6.62;2.50;;;;;;;9.53;100.00;97501.50;4413504;32;20050;-70
2022/09/17 07:25:11;;;;;;;7.97;2.30;;;;;;;10.08;100.00;97614.25;4413275;32;20054;-70
2022/09/17 07:27:37;;;;;;;2.37;2.15;;;;;;;10.04;100.00;97605.97;4414465;32;20034;-70
2022/09/17 07:30:04;;;;;;;4.55;2.62;;;;;;;10.25;100.00;97603.09;4413201;32;20060;-70
2022/09/17 07:32:31;;;;;;;6.35;2.10;;;;;;;10.17;100.00;97583.78;4410908;32;20064;-70
2022/09/17 07:34:57;;;;;;;6.00;2.30;;;;;;;9.98;100.00;97582.88;4410708;32;20042;-69
2022/09/17 07:37:24;;;;;;;4.85;2.60;;;;;;;10.30;100.00;97611.12;4413386;32;20046;-69
2022/09/17 07:39:50;;;;;;;2.50;2.30;;;;;;;10.45;100.00;97619.09;4381915;32;20404;-71
2022/09/17 07:42:17;;;;;;;6.65;2.80;;;;;;;10.40;100.00;97608.37;4380379;32;20104;-74
2022/09/17 07:44:44;;;;;;;3.95;2.45;;;;;;;10.00;100.00;97569.94;4381626;32;20055;-69
2022/09/17 07:47:11;;;;;;;2.35;2.00;;;;;;;10.56;100.00;97613.59;4377795;32;20065;-70
2022/09/17 07:49:37;;;;;;;3.72;2.35;;;;;;;10.06;100.00;97574.19;4380714;32;20051;-70
2022/09/17 07:52:05;;;;;;;6.40;2.60;;;;;;;10.38;100.00;97580.16;4394144;32;20117;-71
2022/09/17 07:54:33;;;;;;;2.30;1.90;;;;;;;10.14;100.00;97580.88;4395800;32;20131;-71
2022/09/17 07:57:00;;;;;;;2.97;2.47;;;;;;;10.11;100.00;97584.13;4380826;32;20426;-70
2022/09/17 07:59:26;;;;;;;5.95;2.15;;;;;;;9.98;100.00;97519.13;4379765;32;20032;-70
2022/09/17 08:01:53;;;;;;;4.87;2.33;;;;;;;10.01;100.00;97603.81;4381531;32;20026;-72
2022/09/17 08:04:20;;;;;;;3.50;2.30;;;;;;;9.93;100.00;97588.31;4380480;32;20458;-70
2022/09/17 08:06:47;;;;;;;3.85;2.40;;;;;;;9.84;100.00;97555.03;4378665;32;20183;-70
2022/09/17 08:09:15;;;;;;;9.30;3.05;;;;;;;10.22;100.00;97625.19;4380272;32;20110;-70
2022/09/17 08:11:44;;;;;;;8.98;2.15;;;;;;;10.26;100.00;97572.41;4368287;32;20115;-71
2022/09/17 08:14:14;;;;;;;4.03;2.37;;;;;;;10.52;100.00;97645.69;4393908;32;20084;-70
2022/09/17 08:16:41;;;;;;;6.18;2.40;;;;;;;11.13;100.00;97643.44;4401120;32;20369;-70
2022/09/17 08:19:10;;;;;;;8.23;2.28;;;;;;;11.07;100.00;97650.75;4408185;32;20442;-70
2022/09/17 08:21:37;;;;;;;4.32;2.15;;;;;;;11.59;100.00;97643.66;4401806;32;20060;-69
2022/09/17 08:24:03;;;;;;;8.95;3.37;;;;;;;11.38;100.00;97639.66;4397558;32;20160;-70
2022/09/17 08:26:30;;;;;;;2.72;2.03;;;;;;;11.46;100.00;97598.56;4399419;32;20039;-69
2022/09/17 08:28:57;;;;;;;9.82;2.35;;;;;;;11.51;100.00;97628.16;4420591;32;20106;-73
2022/09/17 08:31:29;;;;;;;3.47;2.90;;;;;;;10.95;100.00;97556.13;4408646;32;20132;-70
2022/09/17 08:33:56;;;;;;;7.57;2.40;;;;;;;12.14;100.00;97645.06;4409168;32;20123;-70
2022/09/17 08:36:25;;;;;;;2.47;2.08;;;;;;;12.07;100.00;97633.88;4410045;32;20139;-71
2022/09/17 08:38:53;;;;;;;2.78;2.08;;;;;;;10.28;100.00;97468.03;4408169;32;20161;-71
2022/09/17 08:41:28;;;;;;;1.90;1.80;;;;;;;11.37;100.00;97605.69;4406435;32;20478;-70
2022/09/17 08:44:04;;;;;;;2.37;2.03;;;;;;;11.85;100.00;97651.41;4410567;32;20058;-70
2022/09/17 08:46:36;;;;;;;2.55;2.28;;;;;;;11.66;100.00;97645.22;4408700;32;20566;-73
2022/09/17 08:49:14;;;;;;;4.30;2.70;;;;;;;11.39;100.00;97616.97;4410596;32;20101;-71
2022/09/17 08:52:14;;;;;;;2.53;2.33;;;;;;;11.08;100.00;97599.31;4406771;32;20050;-71
2022/09/17 08:54:49;;;;;;;6.62;2.58;;;;;;;11.23;100.00;97654.91;4423630;32;20093;-71
2022/09/17 08:57:25;;;;;;;4.65;2.15;;;;;;;11.54;100.00;97649.12;4426028;32;20065;-71
2022/09/17 09:00:02;;;;;;;4.45;2.12;;;;;;;11.64;100.00;97654.37;4423831;32;20039;-72
2022/09/17 09:03:00;;;;;;;2.45;1.77;;;;;;;11.12;100.00;97618.41;4386973;32;20031;-70
2022/09/17 09:05:35;;;;;;;6.00;1.83;;;;;;;11.43;100.00;97643.06;4385482;32;20077;-70
2022/09/17 09:08:09;;;;;;;2.03;1.92;;;;;;;11.80;100.00;97635.31;4390903;32;20058;-71
2022/09/17 09:11:01;;;;;;;6.43;2.00;;;;;;;11.81;100.00;97639.63;4393935;32;20039;-71
2022/09/17 09:13:41;;;;;;;2.30;2.17;;;;;;;11.83;100.00;97659.00;4390217;32;20050;-72
2022/09/17 09:16:16;;;;;;;2.28;1.83;;;;;;;11.81;100.00;97599.16;4391590;32;20046;-70
2022/09/17 09:18:43;;;;;;;2.90;2.50;;;;;;;12.23;100.00;97629.03;4385028;32;20064;-72
2022/09/17 09:21:21;;;;;;;2.08;1.98;;;;;;;11.71;100.00;97642.44;4384402;32;20791;-71
2022/09/17 09:23:57;;;;;;;6.80;2.33;;;;;;;11.94;100.00;97652.38;4355639;32;20035;-70
2022/09/17 09:26:38;;;;;;;2.42;2.22;;;;;;;12.17;100.00;97655.28;4348448;32;20043;-73
2022/09/17 09:29:39;;;;;;;1.92;1.83;;;;;;;11.93;100.00;97655.38;4338395;32;20090;-70
2022/09/17 09:32:34;;;;;;;5.22;2.47;;;;;;;12.27;100.00;97644.34;4317964;33;20051;-71
2022/09/17 09:35:11;;;;;;;2.58;2.40;;;;;;;11.53;100.00;97652.91;4317995;33;20086;-71
2022/09/17 09:37:42;;;;;;;2.25;1.98;;;;;;;11.70;100.00;97657.81;4318872;33;20062;-71
2022/09/17 09:40:21;;;;;;;2.42;2.30;;;;;;;11.69;100.00;97639.25;4339891;32;20040;-70
2022/09/17 09:42:52;;;;;;;3.33;2.67;;;;;;;11.97;100.00;97646.41;4353299;32;20760;-71
2022/09/17 09:45:36;;;;;;;3.22;2.92;;;;;;;11.31;100.00;97579.91;4352229;32;20455;-71
2022/09/17 09:48:09;;;;;;;3.03;2.47;;;;;;;11.50;100.00;97604.97;4355692;32;20173;-70
2022/09/17 09:50:48;;;;;;;5.47;2.80;;;;;;;12.12;100.00;97658.84;4360560;32;20468;-71
2022/09/17 09:53:39;;;;;;;6.75;3.45;;;;;;;11.68;100.00;97626.84;4361040;32;20036;-72
2022/09/17 09:56:51;;;;;;;2.00;1.98;;;;;;;11.91;100.00;97669.13;4367313;32;20035;-70
2022/09/17 09:59:18;;;;;;;3.72;2.20;;;;;;;12.08;100.00;97673.25;4354119;32;20383;-71
2022/09/17 10:01:45;;;;;;;3.40;2.40;;;;;;;12.17;100.00;97666.91;4366588;32;20061;-71
2022/09/17 10:04:31;;;;;;;2.12;1.98;;;;;;;12.29;100.00;97625.16;4392756;32;20123;-72
2022/09/17 10:07:10;;;;;;;2.50;1.75;;;;;;;12.09;100.00;97628.97;4397015;32;20057;-70
2022/09/17 10:09:44;;;;;;;1.80;1.70;;;;;;;12.51;100.00;97681.22;4388409;32;20440;-71
2022/09/17 10:12:10;;;;;;;1.58;1.58;;;;;;;12.77;100.00;97673.47;4397937;32;20124;-70
2022/09/17 10:14:39;;;;;;;2.08;1.90;;;;;;;12.33;100.00;97670.16;4385622;32;20084;-70
2022/09/17 10:17:25;;;;;;;2.25;1.85;;;;;;;12.46;100.00;97689.38;4382595;32;20346;-71
2022/09/17 10:20:01;;;;;;;2.05;1.92;;;;;;;12.37;100.00;97712.75;4361802;32;20385;-71
2022/09/17 10:22:44;;;;;;;1.92;1.83;;;;;;;12.12;100.00;97663.47;4369541;32;20180;-69
2022/09/17 10:25:33;;;;;;;2.03;1.92;;;;;;;12.47;100.00;97696.41;4367717;32;20040;-70
2022/09/17 10:28:04;;;;;;;2.17;2.08;;;;;;;12.59;100.00;97699.44;4367237;32;20035;-69
2022/09/17 10:30:31;;;;;;;2.33;2.17;;;;;;;12.46;100.00;97654.28;4367835;32;20365;-70
2022/09/17 10:33:28;;;;;;;4.53;1.80;;;;;;;12.56;100.00;97689.22;4368829;32;20059;-72
2022/09/17 10:36:00;;;;;;;3.95;2.05;;;;;;;12.88;100.00;97693.00;4367734;32;20043;-71
2022/09/17 10:38:42;;;;;;;1.98;1.87;;;;;;;13.41;100.00;97697.97;4368391;32;20043;-72
2022/09/17 10:41:17;;;;;;;2.30;2.10;;;;;;;12.83;100.00;97652.59;4366444;32;20089;-71
2022/09/17 10:43:44;;;;;;;4.47;2.00;;;;;;;13.49;100.00;97704.59;4365225;32;20334;-71
2022/09/17 10:46:16;;;;;;;4.07;1.77;;;;;;;13.51;100.00;97710.50;4364851;32;20481;-73
2022/09/17 10:48:56;;;;;;;1.90;1.75;;;;;;;13.38;100.00;97709.41;4357830;32;20040;-71
2022/09/17 10:51:25;;;;;;;1.75;1.62;;;;;;;13.27;100.00;97708.78;4386424;32;20397;-71
2022/09/17 10:54:23;;;;;;;2.40;2.10;;;;;;;13.18;100.00;97693.53;4411061;32;20030;-71
2022/09/17 10:56:56;;;;;;;1.80;1.70;;;;;;;13.31;100.00;97649.50;4407014;32;20060;-71
2022/09/17 10:59:31;;;;;;;;;;;;;;;13.64;100.00;97662.91;4411725;32;20068;-71
2022/09/17 11:02:06;;;;;;;2.05;1.55;;;;;;;13.72;100.00;97700.09;4421227;32;19941;-71
2022/09/17 11:05:06;;;;;;;2.05;1.87;;;;;;;13.36;100.00;97705.41;4429564;32;20471;-71
2022/09/17 11:07:53;;;;;;;2.60;2.40;;;;;;;13.31;100.00;97717.09;4420730;32;20118;-71
2022/09/17 11:10:42;;;;;;;1.85;1.75;;;;;;;13.30;100.00;97685.75;4431914;32;20455;-71
2022/09/17 11:13:27;;;;;;;1.77;1.73;;;;;;;13.37;100.00;97659.16;4426878;32;20082;-70
2022/09/17 11:16:14;;;;;;;2.58;1.98;;;;;;;13.32;100.00;97702.44;4414554;32;20411;-72
2022/09/17 11:18:56;;;;;;;2.08;1.90;;;;;;;12.92;100.00;97650.00;4414879;32;20089;-71
2022/09/17 11:21:44;;;;;;;4.62;2.10;;;;;;;13.17;100.00;97679.22;4413844;32;20064;-73
2022/09/17 11:24:13;;;;;;;3.75;2.03;;;;;;;13.36;100.00;97702.69;4429157;32;20064;-71
2022/09/17 11:26:48;;;;;;;4.55;2.22;;;;;;;13.16;100.00;97666.00;4429770;32;20056;-71
2022/09/17 11:30:09;;;;;;;2.35;2.25;;;;;;;13.67;100.00;97716.41;4428296;32;20077;-70
2022/09/17 11:32:53;;;;;;;1.90;1.80;;;;;;;13.55;100.00;97713.41;4366973;32;20094;-73
2022/09/17 11:35:26;;;;;;;6.40;2.33;;;;;;;13.67;100.00;97705.56;4424104;32;20480;-72
2022/09/17 11:38:13;;;;;;;2.33;2.12;;;;;;;13.50;100.00;97656.72;4435259;32;20046;-70
2022/09/17 11:40:46;;;;;;;3.78;2.08;;;;;;;13.22;100.00;97662.91;4434972;32;20084;-70
2022/09/17 11:43:28;;;;;;;5.40;3.15;;;;;;;13.03;100.00;97673.81;4429363;32;20030;-70
2022/09/17 11:46:28;;;;;;;3.12;2.70;;;;;;;13.24;100.00;97716.66;4411950;32;20093;-72
2022/09/17 11:48:59;;;;;;;2.12;2.03;;;;;;;12.70;100.00;97679.25;4399322;32;20056;-70
2022/09/17 11:51:35;;;;;;;4.57;2.05;;;;;;;12.94;100.00;97705.34;4411543;32;20052;-73
2022/09/17 11:54:15;;;;;;;6.15;2.40;;;;;;;12.78;100.00;97703.97;4414261;32;20068;-70
2022/09/17 11:57:03;;;;;;;2.08;1.90;;;;;;;13.13;100.00;97709.84;4414741;32;20038;-70
2022/09/17 11:59:53;;;;;;;2.53;2.33;;;;;;;12.92;100.00;97702.09;4415114;32;20064;-70